Terminal Aerodrome Forecast
Issued by NWS Chicago, IL

Home | Current Version | Previous Version | Graphics & Text | Print | Product List | Glossary On
Versions: 1 2 3 4 5 6 7 8 9 10 11 12 13 14 15 16 17 18 19 20 21 22 23
874
FTUS43 KLOT 190312 AAA
TAFRFD
TAF AMD
KRFD 190312Z 1903/1924 22007KT P6SM BKN250 WS020/24045KT
     FM190600 22007KT P6SM BKN250
     FM191600 22013G21KT P6SM SCT250=

USA.gov is the U.S. government's official web portal to all federal, state and local government web resources and services.